Juliaca, Peru
Current Conditions -  °F | °C
As of 2:00 PM on Tuesday 21 Oct 2014 (Local Time) from SPJL Reporting Station
Scattered Clouds Scattered Clouds  
Wind Chill: 52°   Ceiling: Unl
Heat Index: 52°   Visibility: 6mi
Dew Point: 39°   Wind: 0mph
Humidity: 62%   Direction: NA
Pressure: 30.59"   Gusts: NA
Location:  15.5°S, 70.14°W
Report Text: SPJL 211900Z 00000KT 9999 FEW015 SCT080 11/04 Q1036 RMK PP000
Loading
Personal Weather Stations






























Interactive Weather Map
Tropical Storm Tracking
New forecast layout! Learn more

10-Day Weather Forecast

Advertisements
Track Severe Weather on mobile